Nearby METAR Reports

 

KPMD - Palmdale, California, USA
Distance from station: NNE 12mi, 19km
Updated: Fri, 03-Apr-2020 3:53pm PDT
Clear
Clear
 Wind from WNW
Wind: WNW 23 mph , 37 km/h, Gust: 29 mph , 46 km/h
Temperature: 68°F , 20°C
Dew Point: 14°F , -10°C
Humidity: 12%
Barometer: 29.87 inHg , 1011.5 hPa
Clouds: Clear
Visibility: 10 miles , 16 km
2020/04/03 22:53 KPMD 032253Z 29020G25KT 10SM CLR 20/M10 A2987 RMK AO2 PK WND 29027/2154 SLP104 T02001100
KWJF - Lancaster/Fox, California, USA
Distance from station: N 17mi, 27km
Updated: Fri, 03-Apr-2020 3:56pm PDT
Clear
Clear
 Wind from W
Wind: W 28 mph , 44 km/h, Gust: 35 mph , 56 km/h
Temperature: 66°F , 19°C
Dew Point: 19°F , -7°C
Humidity: 17%
Barometer: 29.87 inHg , 1011.5 hPa
Clouds: Clear
Visibility: 10 miles , 16 km
2020/04/03 22:56 KWJF 032256Z 28024G30KT 10SM CLR 19/M07 A2987 RMK AO2 PK WND 28031/2243 SLP111 T01891072
 
KMWS - Mount Wilson, California, USA
Distance from station: SSE 18mi, 30km
Updated: Wed, 13-May-2015 6:45am PDT
NOT Current

 Wind from S
Wind: S 3 mph , 6 km/h, Gust: 5 mph , 7 km/h
Temperature: 43°F , 6°C
Dew Point: -0°F , -18°C
Humidity: 16%
2015/05/13 13:45 KMWS 131345Z 18003G04KT 06/M18 RMK SNOW DEPTH 1.00
KWHP - La / Whiteman, California, USA
Distance from station: SW 21mi, 34km
Updated: Fri, 03-Apr-2020 4:55pm PDT
Clear
Clear
 Wind from calm
Wind: Calm
Temperature: 64°F , 18°C
Dew Point: 46°F , 8°C
Humidity: 52%
Barometer: 29.90 inHg , 1012.5 hPa
Clouds: Clear
Visibility: 10 miles , 16 km
2020/04/03 23:55 KWHP 032355Z 00000KT 10SM SKC 18/08 A2990
 
KBUR - Burbank, California, USA
Distance from station: SSW 22mi, 35km
Updated: Fri, 03-Apr-2020 3:53pm PDT
Clear
Clear
 Wind from S
Wind: S 10 mph , 17 km/h
Temperature: 66°F , 19°C
Dew Point: 46°F , 8°C
Humidity: 49%
Barometer: 29.88 inHg , 1011.9 hPa
Clouds: Clear
Visibility: 10 miles , 16 km
2020/04/03 22:53 KBUR 032253Z 17009KT 10SM CLR 19/08 A2988 RMK AO2 SLP109 T01890083
KVNY - Van Nuys, California, USA
Distance from station: SW 25mi, 40km
Updated: Fri, 03-Apr-2020 3:51pm PDT
Few Clouds
Few Clouds
 Wind from SSE
Wind: SSE 13 mph , 20 km/h
Temperature: 70°F , 21°C
Dew Point: 52°F , 11°C
Humidity: 53%
Barometer: 29.86 inHg , 1011.2 hPa
Clouds: Few Clouds
Visibility: 10 miles , 16 km
Cloud details: Few Clouds 4500 ft
2020/04/03 22:51 KVNY 032251Z 16011KT 10SM FEW045 21/11 A2986 RMK AO2 SLP108 T02060106
 
KEDW - Edwards Afb, California, USA
Distance from station: NNE 33mi, 53km
Updated: Fri, 03-Apr-2020 3:58pm PDT
Partly cloudy
Partly cloudy
 Wind from W
Wind: W 26 mph , 43 km/h, Gust: 32 mph , 52 km/h
Temperature: 70°F , 21°C
Dew Point: 12°F , -11°C
Humidity: 11%
Barometer: 29.81 inHg , 1009.5 hPa
Clouds: Partly cloudy
Visibility: 60 miles , 96 km
Cloud details: Partly cloudy 30000 ft
2020/04/03 22:58 KEDW 032258Z 28023G28KT 60SM SCT300 21/M11 A2981 RMK AO2A PK WND 28031/00 SLP086 T02081108
KSMO - Santa Monica, California, USA
Distance from station: SSW 35mi, 57km
Updated: Fri, 03-Apr-2020 3:51pm PDT
Few Clouds
Few Clouds
 Wind from WSW
Wind: WSW 10 mph , 17 km/h, Gust: 18 mph , 30 km/h
Temperature: 63°F , 17°C
Dew Point: 48°F , 9°C
Humidity: 59%
Barometer: 29.91 inHg , 1012.9 hPa
Clouds: Few Clouds
Visibility: 10 miles , 16 km
Cloud details: Few Clouds 1600 ft
2020/04/03 22:51 KSMO 032251Z 24009G16KT 10SM FEW016 17/09 A2991 RMK AO2 SLP126 T01670094
 
KLAX - Los Angeles, California, USA
Distance from station: SSW 39mi, 63km
Updated: Fri, 03-Apr-2020 3:53pm PDT
Few Clouds
Few Clouds
 Wind from W
Wind: W 12 mph , 19 km/h
Temperature: 66°F , 19°C
Dew Point: 50°F , 10°C
Humidity: 56%
Barometer: 29.90 inHg , 1012.5 hPa
Clouds: Few Clouds
Visibility: 10 miles , 16 km
Cloud details: Few Clouds 2500 ft
2020/04/03 22:53 KLAX 032253Z 26010KT 10SM FEW025 19/10 A2990 RMK AO2 SLP125 T01890100
KMHV - Mojave, California, USA
Distance from station: N 41mi, 66km
Updated: Fri, 03-Apr-2020 4:20pm PDT
Clear
Clear
 Wind from WSW
Wind: WSW 26 mph , 43 km/h, Gust: 37 mph , 59 km/h
Temperature: 61°F , 16°C
Dew Point: 23°F , -5°C
Humidity: 23%
Barometer: 29.85 inHg , 1010.8 hPa
Clouds: Clear
Visibility: 10 miles , 16 km
2020/04/03 23:20 KMHV 032320Z AUTO 24023G32KT 10SM CLR 16/M05 A2985 RMK A01
 
KFUL - Fullerton, California, USA
Distance from station: SSE 44mi, 70km
Updated: Fri, 03-Apr-2020 3:53pm PDT
Partly cloudy
Partly cloudy
 Wind from SSW
Wind: SSW 9 mph , 15 km/h, Gust: 18 mph , 30 km/h
Temperature: 70°F , 21°C
Dew Point: 50°F , 10°C
Humidity: 50%
Barometer: 29.89 inHg , 1012.2 hPa
Clouds: Partly cloudy
Visibility: 10 miles , 16 km
Cloud details: Partly cloudy 4100 ft
2020/04/03 22:53 KFUL 032253Z 21008G16KT 180V240 10SM SCT041 21/10 A2989 RMK AO2 SLP119 T02060100
KONT - Ontario, California, USA
Distance from station: SE 45mi, 72km
Updated: Fri, 03-Apr-2020 3:53pm PDT
Few Clouds
Few Clouds
 Wind from SW
Wind: SW 15 mph , 24 km/h, Gust: 21 mph , 33 km/h
Temperature: 70°F , 21°C
Dew Point: 46°F , 8°C
Humidity: 43%
Barometer: 29.87 inHg , 1011.5 hPa
Clouds: Few Clouds
Visibility: 10 miles , 16 km
Cloud details: Few Clouds 6000 ft
Few Clouds 25000 ft
2020/04/03 22:53 KONT 032253Z 23013G18KT 10SM FEW060 FEW250 21/08 A2987 RMK AO2 SLP108 T02060078
 
KLGB - Long Beach, California, USA
Distance from station: S 46mi, 74km
Updated: Fri, 03-Apr-2020 3:53pm PDT
Clear
Clear
 Wind from SSW
Wind: SSW 9 mph , 15 km/h
Temperature: 64°F , 18°C
Dew Point: 46°F , 8°C
Humidity: 52%
Barometer: 29.90 inHg , 1012.5 hPa
Clouds: Clear
Visibility: 10 miles , 16 km
2020/04/03 22:53 KLGB 032253Z 21008KT 10SM CLR 18/08 A2990 RMK AO2 SLP124 T01830083
KVCV - Victorville, California, USA
Distance from station: E 46mi, 74km
Updated: Fri, 03-Apr-2020 4:45pm PDT
Clear
Clear
 Wind from W
Wind: W 16 mph , 26 km/h
Barometer: 29.85 inHg , 1010.8 hPa
Clouds: Clear
Visibility: 10 miles , 16 km
2020/04/03 23:45 KVCV 032345Z 26014KT 10SM SKC A2985
 
KTSP - Tehachapi, California, USA
Distance from station: NNW 48mi, 77km
Updated: Fri, 03-Apr-2020 4:35pm PDT
Clear
Clear
 Wind from WNW
Wind: WNW 23 mph , 37 km/h
Temperature: 52°F , 11°C
Dew Point: 27°F , -3°C
Humidity: 38%
Barometer: 29.95 inHg , 1014.2 hPa
Clouds: Clear
Visibility: 10 miles , 16 km
2020/04/03 23:35 KTSP 032335Z AUTO 30020KT 10SM CLR 11/M03 A2995 RMK AO2